createdAt,value
2023-03-27T00:00:17.031Z,13.80
2023-03-27T00:02:47.569Z,13.80
2023-03-27T00:05:16.502Z,13.80
2023-03-27T00:07:45.791Z,13.90
2023-03-27T00:10:13.697Z,13.90
2023-03-27T00:12:41.692Z,13.90
2023-03-27T00:15:16.187Z,13.90
2023-03-27T00:17:46.951Z,13.90
2023-03-27T00:20:15.853Z,14.00
2023-03-27T00:22:45.258Z,14.10
2023-03-27T00:25:13.363Z,14.10
2023-03-27T00:27:43.621Z,14.10
2023-03-27T00:30:12.771Z,14.20
2023-03-27T00:32:40.920Z,14.20
2023-03-27T00:35:09.884Z,14.20
2023-03-27T00:37:38.060Z,14.20
2023-03-27T00:40:13.743Z,14.20
2023-03-27T00:42:41.836Z,14.20
2023-03-27T00:45:17.956Z,14.20
2023-03-27T00:47:48.439Z,14.20
2023-03-27T00:50:21.682Z,14.20
2023-03-27T00:52:54.404Z,14.20
2023-03-27T00:55:27.091Z,14.20
2023-03-27T00:58:00.414Z,14.30
2023-03-27T01:00:28.970Z,14.30
2023-03-27T01:02:57.087Z,14.40
2023-03-27T01:05:29.782Z,14.30
2023-03-27T01:08:01.001Z,14.30
2023-03-27T01:10:44.048Z,14.30
2023-03-27T01:13:25.460Z,14.30
2023-03-27T01:15:59.127Z,14.30
2023-03-27T01:18:42.442Z,14.20
2023-03-27T01:21:38.832Z,14.20
2023-03-27T01:24:41.588Z,14.20
2023-03-27T01:27:18.732Z,14.10
2023-03-27T01:30:04.350Z,14.00
2023-03-27T01:33:21.877Z,14.00
2023-03-27T01:36:22.746Z,14.00
2023-03-27T01:39:16.965Z,13.90
2023-03-27T01:41:52.350Z,13.90
2023-03-27T01:44:43.323Z,13.90
2023-03-27T01:47:22.648Z,13.90
2023-03-27T01:49:55.929Z,13.90
2023-03-27T01:52:29.543Z,13.90
2023-03-27T01:55:05.373Z,14.00
2023-03-27T01:57:49.300Z,14.10
2023-03-27T02:00:22.760Z,14.10
2023-03-27T02:02:54.577Z,14.10
2023-03-27T02:05:27.418Z,14.10
2023-03-27T02:08:00.336Z,14.20
2023-03-27T02:10:34.311Z,14.10
2023-03-27T02:13:14.855Z,14.10
2023-03-27T02:15:45.805Z,14.00
2023-03-27T02:18:19.401Z,14.00
2023-03-27T02:20:47.705Z,14.00
2023-03-27T02:23:15.656Z,14.00
2023-03-27T02:25:47.012Z,14.00
2023-03-27T02:28:36.844Z,13.90
2023-03-27T02:31:32.660Z,13.90
2023-03-27T02:34:21.979Z,13.90
2023-03-27T02:37:16.485Z,13.90
2023-03-27T02:40:14.748Z,13.90
2023-03-27T02:42:58.473Z,13.80
2023-03-27T02:45:36.682Z,13.80
2023-03-27T02:48:09.811Z,13.80
2023-03-27T02:50:42.767Z,13.70
2023-03-27T02:53:16.524Z,13.60
2023-03-27T02:55:48.249Z,13.60
2023-03-27T02:58:23.787Z,13.50
2023-03-27T03:01:13.839Z,13.50
2023-03-27T03:04:08.854Z,13.50
2023-03-27T03:06:56.407Z,13.50
2023-03-27T03:09:25.560Z,13.50
2023-03-27T03:11:54.407Z,13.50
2023-03-27T03:14:28.669Z,13.50
2023-03-27T03:16:56.574Z,13.50
2023-03-27T03:19:24.377Z,13.50
2023-03-27T03:21:52.511Z,13.50
2023-03-27T03:24:22.554Z,13.40
2023-03-27T03:26:50.595Z,13.50
2023-03-27T03:29:19.734Z,13.50
2023-03-27T03:32:11.786Z,13.40
2023-03-27T03:34:41.955Z,13.40
2023-03-27T03:37:10.852Z,13.40
2023-03-27T03:39:38.708Z,13.50
2023-03-27T03:42:06.732Z,13.40
2023-03-27T03:44:37.462Z,13.30
2023-03-27T03:47:17.462Z,13.20
2023-03-27T03:49:45.494Z,13.20
2023-03-27T03:52:13.485Z,13.20
2023-03-27T03:54:41.351Z,13.20
2023-03-27T03:57:09.123Z,13.20
2023-03-27T03:59:37.210Z,13.20
2023-03-27T04:02:31.902Z,13.10
2023-03-27T04:05:10.698Z,13.00
2023-03-27T04:07:40.584Z,13.00
2023-03-27T04:10:31.332Z,13.00
2023-03-27T04:13:01.570Z,13.00
2023-03-27T04:15:32.628Z,13.00
2023-03-27T04:18:11.182Z,13.20
2023-03-27T04:20:41.345Z,13.30
2023-03-27T04:23:12.307Z,13.30
2023-03-27T04:25:41.356Z,13.30
2023-03-27T04:28:16.553Z,13.20
2023-03-27T04:30:50.604Z,13.20
2023-03-27T04:33:46.738Z,13.30
2023-03-27T04:36:14.993Z,13.30
2023-03-27T04:38:51.417Z,13.30
2023-03-27T04:41:21.401Z,13.20
2023-03-27T04:43:50.216Z,13.30
2023-03-27T04:46:18.196Z,13.30
2023-03-27T04:48:52.945Z,13.30
2023-03-27T04:51:42.043Z,13.40
2023-03-27T04:54:12.006Z,13.50
2023-03-27T04:56:45.885Z,13.40
2023-03-27T04:59:13.821Z,13.40
2023-03-27T05:01:42.018Z,13.50
2023-03-27T05:04:34.618Z,13.50
2023-03-27T05:07:12.510Z,13.50
2023-03-27T05:09:40.429Z,13.40
2023-03-27T05:12:09.665Z,13.40
2023-03-27T05:14:48.696Z,13.40
2023-03-27T05:17:32.931Z,13.40
2023-03-27T05:20:03.768Z,13.40
2023-03-27T05:22:34.991Z,13.30
2023-03-27T05:25:12.155Z,13.20
2023-03-27T05:27:45.876Z,13.10
2023-03-27T05:30:15.504Z,13.10
2023-03-27T05:32:48.575Z,13.20
2023-03-27T05:35:28.505Z,13.20
2023-03-27T05:37:59.182Z,13.20
2023-03-27T05:40:33.005Z,13.30
2023-03-27T05:43:02.608Z,13.30
2023-03-27T05:45:32.786Z,13.30
2023-03-27T05:48:03.748Z,13.30
2023-03-27T05:50:38.249Z,13.30
2023-03-27T05:53:14.238Z,13.30
2023-03-27T05:55:50.977Z,13.30
2023-03-27T05:58:41.851Z,13.30
2023-03-27T06:01:11.372Z,13.30
2023-03-27T06:03:39.726Z,13.30
2023-03-27T06:06:17.134Z,13.40
2023-03-27T06:08:46.723Z,13.40
2023-03-27T06:11:17.803Z,13.40
2023-03-27T06:13:46.974Z,13.40
2023-03-27T06:16:27.751Z,13.50
2023-03-27T06:19:23.847Z,13.50
2023-03-27T06:21:54.547Z,13.50
2023-03-27T06:24:22.600Z,13.50
2023-03-27T06:26:51.437Z,13.50
2023-03-27T06:29:21.492Z,13.50
2023-03-27T06:31:52.967Z,13.60
2023-03-27T06:34:27.134Z,13.60
2023-03-27T06:37:03.812Z,13.60
2023-03-27T06:39:37.648Z,13.70
2023-03-27T06:42:05.794Z,13.70
2023-03-27T06:44:36.073Z,13.80
2023-03-27T06:47:19.449Z,13.90
2023-03-27T06:49:59.280Z,13.90
2023-03-27T06:52:28.544Z,13.90
2023-03-27T06:55:08.757Z,14.00
2023-03-27T06:57:52.356Z,13.90
2023-03-27T07:00:24.483Z,13.90
2023-03-27T07:03:12.020Z,13.80
2023-03-27T07:06:06.490Z,13.90
2023-03-27T07:08:56.387Z,13.90
2023-03-27T07:11:24.246Z,13.90
2023-03-27T07:13:58.747Z,13.90
2023-03-27T07:16:28.490Z,13.90
2023-03-27T07:19:00.197Z,13.90
2023-03-27T07:21:30.038Z,14.00
2023-03-27T07:24:01.577Z,14.00
2023-03-27T07:26:37.963Z,14.00
2023-03-27T07:29:22.613Z,14.10
2023-03-27T07:31:57.851Z,14.20
2023-03-27T07:34:50.775Z,14.30
2023-03-27T07:37:57.899Z,14.30
2023-03-27T07:40:47.304Z,14.30
2023-03-27T07:43:30.342Z,14.40
2023-03-27T07:45:59.957Z,14.40
2023-03-27T07:48:28.881Z,14.50
2023-03-27T07:53:33.374Z,14.50
2023-03-27T07:56:18.907Z,14.60
2023-03-27T07:58:49.336Z,14.70
2023-03-27T08:01:21.749Z,14.70
2023-03-27T08:03:50.390Z,14.70
2023-03-27T08:06:20.389Z,14.80
2023-03-27T08:08:48.340Z,14.90
2023-03-27T08:11:29.574Z,14.90
2023-03-27T08:13:58.689Z,15.00
2023-03-27T08:16:30.228Z,15.10
2023-03-27T08:19:02.355Z,15.20
2023-03-27T08:21:32.196Z,15.20
2023-03-27T08:24:01.428Z,15.20
2023-03-27T08:26:30.840Z,15.20
2023-03-27T08:29:02.243Z,15.20
2023-03-27T08:31:31.906Z,15.20
2023-03-27T08:34:02.019Z,15.40
2023-03-27T08:36:40.428Z,15.50
2023-03-27T08:39:08.539Z,15.50
2023-03-27T08:41:52.610Z,15.60
2023-03-27T08:44:30.486Z,15.70
2023-03-27T08:47:03.238Z,15.70
2023-03-27T08:49:38.425Z,15.80
2023-03-27T08:52:22.151Z,15.90
2023-03-27T08:54:58.397Z,16.00
2023-03-27T08:57:37.555Z,16.10
2023-03-27T09:00:22.798Z,16.20
2023-03-27T09:03:05.277Z,16.40
2023-03-27T09:05:36.724Z,16.50
2023-03-27T09:08:10.598Z,16.50
2023-03-27T09:10:44.630Z,16.50
2023-03-27T09:13:33.831Z,16.60
2023-03-27T09:16:05.014Z,16.60
2023-03-27T09:18:36.575Z,16.80
2023-03-27T09:21:14.992Z,16.80
2023-03-27T09:23:45.593Z,16.80
2023-03-27T09:26:20.298Z,16.90
2023-03-27T09:29:25.785Z,16.90
2023-03-27T09:32:04.176Z,17.00
2023-03-27T09:34:33.637Z,17.10
2023-03-27T09:37:02.783Z,17.10
2023-03-27T09:39:34.095Z,17.20
2023-03-27T09:42:20.352Z,17.30
2023-03-27T09:44:56.561Z,17.40
2023-03-27T09:47:32.625Z,17.60
2023-03-27T09:50:21.435Z,17.60
2023-03-27T09:53:10.767Z,17.60
2023-03-27T09:55:53.189Z,17.70
2023-03-27T09:58:35.825Z,17.90
2023-03-27T10:01:14.228Z,17.90
2023-03-27T10:03:49.448Z,18.10
2023-03-27T10:06:26.522Z,18.30
2023-03-27T10:09:20.069Z,18.30
2023-03-27T10:11:51.191Z,18.40
2023-03-27T10:14:26.463Z,18.50
2023-03-27T10:16:57.210Z,18.60
2023-03-27T10:19:29.669Z,18.60
2023-03-27T10:22:04.662Z,18.60
2023-03-27T10:24:34.468Z,18.60
2023-03-27T10:27:43.827Z,18.80
2023-03-27T10:30:32.379Z,18.90
2023-03-27T10:33:32.255Z,18.90
2023-03-27T10:36:18.851Z,18.90
2023-03-27T10:38:54.167Z,19.00
2023-03-27T10:41:37.134Z,19.20
2023-03-27T10:44:14.249Z,19.10
2023-03-27T10:46:46.489Z,19.10
2023-03-27T10:49:26.124Z,19.20
2023-03-27T10:52:03.532Z,19.30
2023-03-27T10:54:59.008Z,19.30
2023-03-27T10:57:34.366Z,19.40
2023-03-27T11:00:11.998Z,19.30
2023-03-27T11:02:53.461Z,19.40
2023-03-27T11:05:26.483Z,19.50
2023-03-27T11:08:02.947Z,19.60
2023-03-27T11:10:35.166Z,19.50
2023-03-27T11:13:10.290Z,19.60
2023-03-27T11:15:43.161Z,19.50
2023-03-27T11:18:37.413Z,19.60
2023-03-27T11:21:13.181Z,19.80
2023-03-27T11:23:58.876Z,19.70
2023-03-27T11:26:42.495Z,19.70
2023-03-27T11:29:20.692Z,19.80
2023-03-27T11:31:54.236Z,19.80
2023-03-27T11:34:53.184Z,19.80
2023-03-27T11:37:47.099Z,19.90
2023-03-27T11:40:20.522Z,19.90
2023-03-27T11:42:56.134Z,20.00
2023-03-27T11:45:27.401Z,20.00
2023-03-27T11:48:24.956Z,20.10
2023-03-27T11:50:59.636Z,20.30
2023-03-27T11:53:57.269Z,20.20
2023-03-27T11:56:56.355Z,20.30
2023-03-27T12:00:18.401Z,20.30
2023-03-27T12:03:24.425Z,20.30
2023-03-27T12:06:07.085Z,20.30
2023-03-27T12:09:06.601Z,20.20
2023-03-27T12:11:50.993Z,20.20
2023-03-27T12:14:46.526Z,20.10
2023-03-27T12:17:54.684Z,19.90
2023-03-27T12:20:53.824Z,19.90
2023-03-27T12:23:45.220Z,20.10
2023-03-27T12:26:58.946Z,20.20
2023-03-27T12:29:59.851Z,20.40
2023-03-27T12:33:07.682Z,20.80
2023-03-27T12:35:41.717Z,20.90
2023-03-27T12:38:20.947Z,21.00
2023-03-27T12:41:00.805Z,21.00
2023-03-27T12:43:39.959Z,21.00
2023-03-27T12:46:36.616Z,21.10
2023-03-27T12:49:47.427Z,21.30
2023-03-27T12:52:26.984Z,21.60
2023-03-27T12:55:21.264Z,21.50
2023-03-27T12:57:59.347Z,21.40
2023-03-27T13:00:59.021Z,21.60
2023-03-27T13:04:05.821Z,21.60
2023-03-27T13:06:46.558Z,21.60
2023-03-27T13:09:28.534Z,21.50
2023-03-27T13:12:20.738Z,21.50
2023-03-27T13:15:06.966Z,21.60
2023-03-27T13:18:01.850Z,21.10
2023-03-27T13:20:46.182Z,21.20
2023-03-27T13:23:32.391Z,21.30
2023-03-27T13:26:11.451Z,21.50
2023-03-27T13:28:48.730Z,21.40
2023-03-27T13:31:49.355Z,21.20
2023-03-27T13:34:42.270Z,21.30
2023-03-27T13:38:01.272Z,21.20
2023-03-27T13:40:53.953Z,21.30
2023-03-27T13:43:28.664Z,21.40
2023-03-27T13:46:19.450Z,21.40
2023-03-27T13:49:33.398Z,21.40
2023-03-27T13:52:43.112Z,21.40
2023-03-27T13:55:31.426Z,21.40
2023-03-27T13:58:34.745Z,21.40
2023-03-27T14:01:12.481Z,21.70
2023-03-27T14:04:29.874Z,21.80
2023-03-27T14:07:34.669Z,21.90
2023-03-27T14:10:40.593Z,22.10
2023-03-27T14:13:39.688Z,22.20
2023-03-27T14:16:41.718Z,22.50
2023-03-27T14:19:34.041Z,22.70
2023-03-27T14:22:07.621Z,23.10
2023-03-27T14:24:50.399Z,23.10
2023-03-27T14:27:34.825Z,23.30
2023-03-27T14:30:09.278Z,23.40
2023-03-27T14:32:41.153Z,23.40
2023-03-27T14:35:29.473Z,23.70
2023-03-27T14:38:07.929Z,24.10
2023-03-27T14:40:47.701Z,24.30
2023-03-27T14:43:22.247Z,24.50
2023-03-27T14:45:57.842Z,24.50
2023-03-27T14:48:29.168Z,24.70
2023-03-27T14:51:02.217Z,25.10
2023-03-27T14:53:37.327Z,25.00
2023-03-27T14:56:13.079Z,25.30
2023-03-27T14:59:01.153Z,25.50
2023-03-27T15:01:42.245Z,25.70
2023-03-27T15:04:12.187Z,25.70
2023-03-27T15:06:42.571Z,25.70
2023-03-27T15:09:15.998Z,25.60
2023-03-27T15:12:24.356Z,25.90
2023-03-27T15:14:56.059Z,25.70
2023-03-27T15:17:24.593Z,25.70
2023-03-27T15:19:55.661Z,25.70
2023-03-27T15:22:30.319Z,25.90
2023-03-27T15:25:03.224Z,25.90
2023-03-27T15:27:34.518Z,25.80
2023-03-27T15:30:08.251Z,26.00
2023-03-27T15:32:42.806Z,26.10
2023-03-27T15:35:15.420Z,25.60
2023-03-27T15:37:43.520Z,25.70
2023-03-27T15:40:41.855Z,25.70
2023-03-27T15:43:24.772Z,26.00
2023-03-27T15:46:02.944Z,25.90
2023-03-27T15:48:33.205Z,25.30
2023-03-27T15:51:03.329Z,24.40
2023-03-27T15:53:37.353Z,23.30
2023-03-27T15:56:14.544Z,22.60
2023-03-27T15:58:48.799Z,22.10
2023-03-27T16:01:21.765Z,21.90
2023-03-27T16:03:51.686Z,21.60
2023-03-27T16:06:31.155Z,21.50
2023-03-27T16:09:01.180Z,21.30
2023-03-27T16:11:43.224Z,21.20
2023-03-27T16:14:26.937Z,21.10
2023-03-27T16:17:11.251Z,20.90
2023-03-27T16:19:44.062Z,20.90
2023-03-27T16:22:13.569Z,20.70
2023-03-27T16:24:41.714Z,20.60
2023-03-27T16:27:11.722Z,20.60
2023-03-27T16:29:39.658Z,20.60
2023-03-27T16:32:13.409Z,20.70
2023-03-27T16:34:41.855Z,20.70
2023-03-27T16:37:10.245Z,20.50
2023-03-27T16:39:38.389Z,20.50
2023-03-27T16:42:06.263Z,20.50
2023-03-27T16:44:34.621Z,20.60
2023-03-27T16:47:02.994Z,20.90
2023-03-27T16:49:32.518Z,22.10
2023-03-27T16:52:00.640Z,24.10
2023-03-27T16:54:28.788Z,25.00
2023-03-27T16:56:56.735Z,25.40
2023-03-27T16:59:25.346Z,24.70
2023-03-27T17:01:53.465Z,22.20
2023-03-27T17:04:22.247Z,21.10
2023-03-27T17:06:51.856Z,20.50
2023-03-27T17:09:19.836Z,20.20
2023-03-27T17:11:47.828Z,20.00
2023-03-27T17:14:16.544Z,19.90
2023-03-27T17:16:44.941Z,19.80
2023-03-27T17:19:15.863Z,19.60
2023-03-27T17:21:44.016Z,19.40
2023-03-27T17:24:14.780Z,19.30
2023-03-27T17:26:42.858Z,19.30
2023-03-27T17:29:11.615Z,19.20
2023-03-27T17:31:39.698Z,19.10
2023-03-27T17:34:08.100Z,19.10
2023-03-27T17:36:44.977Z,19.00
2023-03-27T17:39:19.077Z,18.90
2023-03-27T17:41:47.038Z,18.90
2023-03-27T17:44:15.092Z,18.80
2023-03-27T17:46:43.124Z,18.70
2023-03-27T17:49:11.338Z,18.70
2023-03-27T17:51:39.283Z,18.60
2023-03-27T17:54:07.227Z,18.60
2023-03-27T17:56:41.669Z,18.60
2023-03-27T17:59:10.408Z,18.50
2023-03-27T18:01:38.269Z,18.50
2023-03-27T18:04:06.440Z,18.30
2023-03-27T18:06:34.291Z,18.20
2023-03-27T18:09:02.247Z,18.20
2023-03-27T18:11:30.048Z,18.10
2023-03-27T18:13:59.449Z,18.00
2023-03-27T18:16:27.333Z,17.90
2023-03-27T18:18:55.830Z,17.90
2023-03-27T18:21:26.196Z,17.90
2023-03-27T18:23:59.598Z,17.90
2023-03-27T18:26:28.093Z,17.80
2023-03-27T18:29:05.111Z,17.80
2023-03-27T18:31:33.165Z,17.80
2023-03-27T18:34:01.353Z,17.80
2023-03-27T18:36:29.364Z,17.80
2023-03-27T18:38:57.400Z,17.70
2023-03-27T18:41:25.525Z,17.60
2023-03-27T18:43:53.459Z,17.60
2023-03-27T18:46:23.069Z,17.50
2023-03-27T18:49:24.906Z,17.50
2023-03-27T18:51:54.009Z,17.40
2023-03-27T18:54:21.844Z,17.40
2023-03-27T18:56:49.912Z,17.30
2023-03-27T18:59:18.260Z,17.20
2023-03-27T19:01:49.491Z,17.20
2023-03-27T19:04:19.130Z,17.20
2023-03-27T19:06:47.097Z,17.20
2023-03-27T19:09:15.220Z,17.10
2023-03-27T19:11:44.793Z,17.10
2023-03-27T19:14:34.037Z,17.10
2023-03-27T19:17:30.917Z,17.10
2023-03-27T19:20:12.272Z,17.10
2023-03-27T19:22:50.380Z,17.00
2023-03-27T19:25:48.167Z,17.00
2023-03-27T19:28:16.735Z,17.00
2023-03-27T19:30:44.747Z,17.00
2023-03-27T19:33:14.350Z,16.90
2023-03-27T19:35:42.139Z,16.80
2023-03-27T19:38:10.078Z,16.90
2023-03-27T19:40:38.091Z,16.80
2023-03-27T19:43:06.733Z,16.70
2023-03-27T19:45:34.749Z,16.70
2023-03-27T19:48:02.830Z,16.60
2023-03-27T19:50:33.379Z,16.60
2023-03-27T19:53:10.558Z,16.70
2023-03-27T19:55:38.872Z,16.60
2023-03-27T19:58:07.722Z,16.60
2023-03-27T20:00:40.490Z,16.50
2023-03-27T20:03:10.649Z,16.60
2023-03-27T20:05:41.481Z,16.50
2023-03-27T20:08:09.515Z,16.50
2023-03-27T20:10:37.625Z,16.50
2023-03-27T20:13:05.535Z,16.50
2023-03-27T20:15:35.030Z,16.50
2023-03-27T20:18:04.900Z,16.40
2023-03-27T20:20:33.540Z,16.40
2023-03-27T20:23:04.509Z,16.40
2023-03-27T20:25:34.489Z,16.30
2023-03-27T20:28:04.976Z,16.30
2023-03-27T20:30:36.775Z,16.20
2023-03-27T20:33:05.122Z,16.20
2023-03-27T20:35:34.071Z,16.20
2023-03-27T20:38:05.971Z,16.20
2023-03-27T20:40:53.803Z,16.20
2023-03-27T20:43:27.518Z,16.10
2023-03-27T20:46:01.097Z,16.10
2023-03-27T20:48:42.042Z,16.10
2023-03-27T20:51:14.965Z,16.10
2023-03-27T20:53:46.903Z,16.10
2023-03-27T20:56:15.457Z,16.10
2023-03-27T20:58:44.564Z,16.00
2023-03-27T21:01:12.779Z,16.00
2023-03-27T21:03:42.886Z,15.90
2023-03-27T21:06:14.404Z,15.90
2023-03-27T21:08:43.806Z,15.80
2023-03-27T21:11:11.849Z,15.80
2023-03-27T21:13:39.804Z,15.70
2023-03-27T21:16:09.369Z,15.70
2023-03-27T21:18:37.316Z,15.70
2023-03-27T21:21:05.868Z,15.70
2023-03-27T21:23:34.861Z,15.60
2023-03-27T21:26:04.394Z,15.60
2023-03-27T21:28:32.213Z,15.50
2023-03-27T21:31:05.679Z,15.40
2023-03-27T21:33:33.463Z,15.50
2023-03-27T21:36:02.123Z,15.40
2023-03-27T21:38:30.068Z,15.40
2023-03-27T21:40:57.715Z,15.30
2023-03-27T21:43:27.423Z,15.30
2023-03-27T21:45:55.756Z,15.30
2023-03-27T21:48:23.687Z,15.10
2023-03-27T21:50:51.414Z,15.10
2023-03-27T21:53:19.291Z,15.00
2023-03-27T21:55:47.368Z,15.00
2023-03-27T21:58:15.740Z,15.10
2023-03-27T22:00:47.283Z,15.10
2023-03-27T22:03:15.630Z,15.10
2023-03-27T22:05:49.127Z,15.10
2023-03-27T22:08:24.539Z,15.00
2023-03-27T22:11:01.726Z,15.00
2023-03-27T22:13:30.204Z,14.90
2023-03-27T22:16:00.312Z,14.80
2023-03-27T22:18:31.247Z,14.70
2023-03-27T22:20:59.648Z,14.70
2023-03-27T22:23:27.924Z,14.70
2023-03-27T22:25:58.203Z,14.70
2023-03-27T22:28:29.423Z,14.50
2023-03-27T22:30:59.582Z,14.50
2023-03-27T22:33:28.077Z,14.50
2023-03-27T22:35:56.294Z,14.40
2023-03-27T22:38:24.699Z,14.40
2023-03-27T22:40:52.846Z,14.30
2023-03-27T22:43:23.368Z,14.40
2023-03-27T22:45:52.822Z,14.50
2023-03-27T22:48:22.500Z,14.50
2023-03-27T22:50:55.748Z,14.40
2023-03-27T22:53:25.571Z,14.40
2023-03-27T22:55:56.366Z,14.40
2023-03-27T22:58:26.118Z,14.40
2023-03-27T23:00:55.779Z,14.40
2023-03-27T23:03:27.418Z,14.40
2023-03-27T23:05:56.020Z,14.30
2023-03-27T23:08:27.352Z,14.30
2023-03-27T23:11:05.228Z,14.20
2023-03-27T23:13:35.163Z,14.10
2023-03-27T23:16:03.232Z,14.00
2023-03-27T23:18:33.142Z,13.90
2023-03-27T23:21:02.973Z,13.90
2023-03-27T23:23:32.734Z,13.80
2023-03-27T23:26:01.408Z,13.70
2023-03-27T23:28:32.285Z,13.60
2023-03-27T23:31:02.761Z,13.60
2023-03-27T23:33:35.706Z,13.60
2023-03-27T23:36:06.897Z,13.70
2023-03-27T23:38:35.827Z,13.70
2023-03-27T23:41:05.111Z,13.70
2023-03-27T23:43:34.161Z,13.60
2023-03-27T23:46:02.867Z,13.60
2023-03-27T23:48:33.110Z,13.70
2023-03-27T23:51:01.513Z,13.70
2023-03-27T23:53:30.007Z,13.80
2023-03-27T23:55:59.628Z,13.80
2023-03-27T23:58:32.670Z,13.70
